sensor_id;sensor_type;location;lat;lon;timestamp;P1;durP1;ratioP1;P2;durP2;ratioP2
20970;SDS011;10644;48.834;10.088;2023-04-25T00:00:33;10.20;;;5.30;;
20970;SDS011;10644;48.834;10.088;2023-04-25T00:02:59;8.57;;;5.50;;
20970;SDS011;10644;48.834;10.088;2023-04-25T00:05:25;7.00;;;5.13;;
20970;SDS011;10644;48.834;10.088;2023-04-25T00:07:51;7.50;;;4.70;;
20970;SDS011;10644;48.834;10.088;2023-04-25T00:10:19;8.40;;;4.50;;
20970;SDS011;10644;48.834;10.088;2023-04-25T00:12:45;6.80;;;4.20;;
20970;SDS011;10644;48.834;10.088;2023-04-25T00:15:11;8.03;;;4.33;;
20970;SDS011;10644;48.834;10.088;2023-04-25T00:17:36;5.03;;;3.90;;
20970;SDS011;10644;48.834;10.088;2023-04-25T00:20:03;5.70;;;4.50;;
20970;SDS011;10644;48.834;10.088;2023-04-25T00:22:35;5.33;;;3.93;;
20970;SDS011;10644;48.834;10.088;2023-04-25T00:25:03;5.43;;;3.70;;
20970;SDS011;10644;48.834;10.088;2023-04-25T00:27:32;5.83;;;3.60;;
20970;SDS011;10644;48.834;10.088;2023-04-25T00:29:57;10.00;;;4.53;;
20970;SDS011;10644;48.834;10.088;2023-04-25T00:32:23;4.17;;;3.77;;
20970;SDS011;10644;48.834;10.088;2023-04-25T00:34:48;8.73;;;4.13;;
20970;SDS011;10644;48.834;10.088;2023-04-25T00:37:16;4.20;;;3.70;;
20970;SDS011;10644;48.834;10.088;2023-04-25T00:39:41;4.10;;;3.77;;
20970;SDS011;10644;48.834;10.088;2023-04-25T00:42:07;6.53;;;4.13;;
20970;SDS011;10644;48.834;10.088;2023-04-25T00:44:33;5.00;;;3.70;;
20970;SDS011;10644;48.834;10.088;2023-04-25T00:47:01;7.63;;;3.97;;
20970;SDS011;10644;48.834;10.088;2023-04-25T00:49:26;5.70;;;4.40;;
20970;SDS011;10644;48.834;10.088;2023-04-25T00:51:52;3.93;;;3.53;;
20970;SDS011;10644;48.834;10.088;2023-04-25T00:54:17;6.13;;;4.50;;
20970;SDS011;10644;48.834;10.088;2023-04-25T00:56:43;6.23;;;4.03;;
20970;SDS011;10644;48.834;10.088;2023-04-25T00:59:10;5.50;;;4.10;;
20970;SDS011;10644;48.834;10.088;2023-04-25T01:01:36;5.13;;;3.57;;
20970;SDS011;10644;48.834;10.088;2023-04-25T01:04:06;6.33;;;3.70;;
20970;SDS011;10644;48.834;10.088;2023-04-25T01:06:32;6.03;;;3.03;;
20970;SDS011;10644;48.834;10.088;2023-04-25T01:08:57;3.30;;;3.00;;
20970;SDS011;10644;48.834;10.088;2023-04-25T01:11:24;4.53;;;3.25;;
20970;SDS011;10644;48.834;10.088;2023-04-25T01:13:50;6.83;;;3.60;;
20970;SDS011;10644;48.834;10.088;2023-04-25T01:16:17;5.13;;;3.40;;
20970;SDS011;10644;48.834;10.088;2023-04-25T01:18:43;3.97;;;2.70;;
20970;SDS011;10644;48.834;10.088;2023-04-25T01:21:10;6.38;;;3.30;;
20970;SDS011;10644;48.834;10.088;2023-04-25T01:23:39;7.93;;;3.78;;
20970;SDS011;10644;48.834;10.088;2023-04-25T01:26:10;4.90;;;3.67;;
20970;SDS011;10644;48.834;10.088;2023-04-25T01:28:36;9.03;;;3.83;;
20970;SDS011;10644;48.834;10.088;2023-04-25T01:31:04;4.33;;;3.10;;
20970;SDS011;10644;48.834;10.088;2023-04-25T01:33:30;6.07;;;3.20;;
20970;SDS011;10644;48.834;10.088;2023-04-25T01:35:58;3.70;;;2.80;;
20970;SDS011;10644;48.834;10.088;2023-04-25T01:38:24;3.83;;;3.20;;
20970;SDS011;10644;48.834;10.088;2023-04-25T01:40:50;6.20;;;3.53;;
20970;SDS011;10644;48.834;10.088;2023-04-25T01:43:17;5.07;;;3.17;;
20970;SDS011;10644;48.834;10.088;2023-04-25T01:45:42;3.50;;;2.90;;
20970;SDS011;10644;48.834;10.088;2023-04-25T01:48:11;3.07;;;2.60;;
20970;SDS011;10644;48.834;10.088;2023-04-25T01:50:39;5.50;;;3.23;;
20970;SDS011;10644;48.834;10.088;2023-04-25T01:53:05;3.30;;;3.00;;
20970;SDS011;10644;48.834;10.088;2023-04-25T01:55:34;4.35;;;2.60;;
20970;SDS011;10644;48.834;10.088;2023-04-25T01:57:59;5.93;;;3.43;;
20970;SDS011;10644;48.834;10.088;2023-04-25T02:00:27;11.00;;;3.60;;
20970;SDS011;10644;48.834;10.088;2023-04-25T02:02:57;10.40;;;3.60;;
20970;SDS011;10644;48.834;10.088;2023-04-25T02:05:23;5.23;;;3.93;;
20970;SDS011;10644;48.834;10.088;2023-04-25T02:07:48;7.50;;;3.70;;
20970;SDS011;10644;48.834;10.088;2023-04-25T02:10:16;5.80;;;3.97;;
20970;SDS011;10644;48.834;10.088;2023-04-25T02:12:41;5.50;;;3.30;;
20970;SDS011;10644;48.834;10.088;2023-04-25T02:15:07;5.47;;;3.97;;
20970;SDS011;10644;48.834;10.088;2023-04-25T02:17:32;6.23;;;3.77;;
20970;SDS011;10644;48.834;10.088;2023-04-25T02:19:58;5.23;;;3.43;;
20970;SDS011;10644;48.834;10.088;2023-04-25T02:22:23;3.70;;;3.40;;
20970;SDS011;10644;48.834;10.088;2023-04-25T02:24:49;4.53;;;3.77;;
20970;SDS011;10644;48.834;10.088;2023-04-25T02:27:14;4.70;;;4.00;;
20970;SDS011;10644;48.834;10.088;2023-04-25T02:29:40;5.93;;;3.70;;
20970;SDS011;10644;48.834;10.088;2023-04-25T02:32:07;3.70;;;3.40;;
20970;SDS011;10644;48.834;10.088;2023-04-25T02:34:33;4.20;;;3.80;;
20970;SDS011;10644;48.834;10.088;2023-04-25T02:36:58;6.07;;;3.90;;
20970;SDS011;10644;48.834;10.088;2023-04-25T02:39:26;5.30;;;3.43;;
20970;SDS011;10644;48.834;10.088;2023-04-25T02:41:52;9.70;;;3.70;;
20970;SDS011;10644;48.834;10.088;2023-04-25T02:44:17;4.23;;;3.43;;
20970;SDS011;10644;48.834;10.088;2023-04-25T02:46:43;9.00;;;3.60;;
20970;SDS011;10644;48.834;10.088;2023-04-25T02:49:08;4.40;;;3.47;;
20970;SDS011;10644;48.834;10.088;2023-04-25T02:51:34;6.03;;;3.80;;
20970;SDS011;10644;48.834;10.088;2023-04-25T02:54:00;5.70;;;3.30;;
20970;SDS011;10644;48.834;10.088;2023-04-25T02:56:25;9.57;;;3.87;;
20970;SDS011;10644;48.834;10.088;2023-04-25T02:58:51;4.93;;;3.80;;
20970;SDS011;10644;48.834;10.088;2023-04-25T03:01:16;5.73;;;3.43;;
20970;SDS011;10644;48.834;10.088;2023-04-25T03:03:42;10.00;;;4.60;;
20970;SDS011;10644;48.834;10.088;2023-04-25T03:06:07;10.20;;;4.20;;
20970;SDS011;10644;48.834;10.088;2023-04-25T03:08:35;9.77;;;4.17;;
20970;SDS011;10644;48.834;10.088;2023-04-25T03:11:00;5.57;;;3.70;;
20970;SDS011;10644;48.834;10.088;2023-04-25T03:13:26;8.67;;;4.57;;
20970;SDS011;10644;48.834;10.088;2023-04-25T03:15:54;4.93;;;4.30;;
20970;SDS011;10644;48.834;10.088;2023-04-25T03:18:23;6.20;;;3.90;;
20970;SDS011;10644;48.834;10.088;2023-04-25T03:20:51;5.20;;;4.70;;
20970;SDS011;10644;48.834;10.088;2023-04-25T03:23:16;9.53;;;5.33;;
20970;SDS011;10644;48.834;10.088;2023-04-25T03:25:42;6.93;;;4.97;;
20970;SDS011;10644;48.834;10.088;2023-04-25T03:28:08;10.90;;;5.40;;
20970;SDS011;10644;48.834;10.088;2023-04-25T03:30:33;4.63;;;4.20;;
20970;SDS011;10644;48.834;10.088;2023-04-25T03:33:01;5.77;;;4.23;;
20970;SDS011;10644;48.834;10.088;2023-04-25T03:35:26;6.53;;;4.80;;
20970;SDS011;10644;48.834;10.088;2023-04-25T03:37:51;10.93;;;5.60;;
20970;SDS011;10644;48.834;10.088;2023-04-25T03:40:17;8.60;;;4.30;;
20970;SDS011;10644;48.834;10.088;2023-04-25T03:42:42;9.10;;;4.90;;
20970;SDS011;10644;48.834;10.088;2023-04-25T03:45:07;7.33;;;5.50;;
20970;SDS011;10644;48.834;10.088;2023-04-25T03:47:35;10.43;;;4.77;;
20970;SDS011;10644;48.834;10.088;2023-04-25T03:50:01;9.03;;;5.10;;
20970;SDS011;10644;48.834;10.088;2023-04-25T03:52:27;7.17;;;5.10;;
20970;SDS011;10644;48.834;10.088;2023-04-25T03:54:53;11.90;;;5.13;;
20970;SDS011;10644;48.834;10.088;2023-04-25T03:57:18;10.43;;;5.50;;
20970;SDS011;10644;48.834;10.088;2023-04-25T03:59:46;10.97;;;5.80;;
20970;SDS011;10644;48.834;10.088;2023-04-25T04:02:12;8.60;;;5.63;;
20970;SDS011;10644;48.834;10.088;2023-04-25T04:04:37;10.63;;;5.50;;
20970;SDS011;10644;48.834;10.088;2023-04-25T04:07:03;8.77;;;5.60;;
20970;SDS011;10644;48.834;10.088;2023-04-25T04:09:28;9.23;;;5.90;;
20970;SDS011;10644;48.834;10.088;2023-04-25T04:11:54;9.67;;;5.50;;
20970;SDS011;10644;48.834;10.088;2023-04-25T04:14:21;6.20;;;4.70;;
20970;SDS011;10644;48.834;10.088;2023-04-25T04:16:47;7.60;;;4.63;;
20970;SDS011;10644;48.834;10.088;2023-04-25T04:19:15;5.95;;;5.03;;
20970;SDS011;10644;48.834;10.088;2023-04-25T04:21:43;17.67;;;6.77;;
20970;SDS011;10644;48.834;10.088;2023-04-25T04:24:08;12.47;;;5.77;;
20970;SDS011;10644;48.834;10.088;2023-04-25T04:26:33;10.90;;;6.43;;
20970;SDS011;10644;48.834;10.088;2023-04-25T04:29:02;14.18;;;6.43;;
20970;SDS011;10644;48.834;10.088;2023-04-25T04:31:27;14.73;;;6.17;;
20970;SDS011;10644;48.834;10.088;2023-04-25T04:33:53;13.40;;;6.50;;
20970;SDS011;10644;48.834;10.088;2023-04-25T04:36:18;16.90;;;7.40;;
20970;SDS011;10644;48.834;10.088;2023-04-25T04:38:48;14.03;;;7.03;;
20970;SDS011;10644;48.834;10.088;2023-04-25T04:41:15;21.63;;;8.20;;
20970;SDS011;10644;48.834;10.088;2023-04-25T04:43:44;20.87;;;8.37;;
20970;SDS011;10644;48.834;10.088;2023-04-25T04:46:09;17.70;;;6.77;;
20970;SDS011;10644;48.834;10.088;2023-04-25T04:48:35;16.73;;;7.50;;
20970;SDS011;10644;48.834;10.088;2023-04-25T04:51:00;14.10;;;7.20;;
20970;SDS011;10644;48.834;10.088;2023-04-25T04:53:26;11.73;;;5.90;;
20970;SDS011;10644;48.834;10.088;2023-04-25T04:55:54;14.70;;;7.10;;
20970;SDS011;10644;48.834;10.088;2023-04-25T04:58:19;25.67;;;9.60;;
20970;SDS011;10644;48.834;10.088;2023-04-25T05:00:47;14.23;;;6.70;;
20970;SDS011;10644;48.834;10.088;2023-04-25T05:03:15;14.20;;;6.80;;
20970;SDS011;10644;48.834;10.088;2023-04-25T05:05:41;17.43;;;6.90;;
20970;SDS011;10644;48.834;10.088;2023-04-25T05:08:06;12.40;;;6.53;;
20970;SDS011;10644;48.834;10.088;2023-04-25T05:10:32;12.27;;;6.27;;
20970;SDS011;10644;48.834;10.088;2023-04-25T05:12:57;14.53;;;7.27;;
20970;SDS011;10644;48.834;10.088;2023-04-25T05:15:23;14.57;;;6.53;;
20970;SDS011;10644;48.834;10.088;2023-04-25T05:17:50;15.23;;;6.03;;
20970;SDS011;10644;48.834;10.088;2023-04-25T05:20:15;14.60;;;6.03;;
20970;SDS011;10644;48.834;10.088;2023-04-25T05:22:45;16.53;;;6.03;;
20970;SDS011;10644;48.834;10.088;2023-04-25T05:25:10;25.60;;;8.33;;
20970;SDS011;10644;48.834;10.088;2023-04-25T05:27:36;18.87;;;7.00;;
20970;SDS011;10644;48.834;10.088;2023-04-25T05:30:02;18.50;;;6.87;;
20970;SDS011;10644;48.834;10.088;2023-04-25T05:32:27;17.37;;;6.13;;
20970;SDS011;10644;48.834;10.088;2023-04-25T05:34:53;12.53;;;5.90;;
20970;SDS011;10644;48.834;10.088;2023-04-25T05:37:20;14.63;;;6.10;;
20970;SDS011;10644;48.834;10.088;2023-04-25T05:39:46;25.67;;;8.40;;
20970;SDS011;10644;48.834;10.088;2023-04-25T05:42:11;20.47;;;6.40;;
20970;SDS011;10644;48.834;10.088;2023-04-25T05:44:36;24.43;;;6.93;;
20970;SDS011;10644;48.834;10.088;2023-04-25T05:47:02;15.73;;;5.63;;
20970;SDS011;10644;48.834;10.088;2023-04-25T05:49:29;18.73;;;6.70;;
20970;SDS011;10644;48.834;10.088;2023-04-25T05:51:54;13.73;;;5.73;;
20970;SDS011;10644;48.834;10.088;2023-04-25T05:54:20;20.37;;;6.73;;
20970;SDS011;10644;48.834;10.088;2023-04-25T05:56:45;17.10;;;6.27;;
20970;SDS011;10644;48.834;10.088;2023-04-25T05:59:10;14.73;;;5.93;;
20970;SDS011;10644;48.834;10.088;2023-04-25T06:01:36;20.27;;;6.00;;
20970;SDS011;10644;48.834;10.088;2023-04-25T06:04:01;19.37;;;6.30;;
20970;SDS011;10644;48.834;10.088;2023-04-25T06:06:27;12.60;;;5.97;;
20970;SDS011;10644;48.834;10.088;2023-04-25T06:08:52;23.97;;;6.63;;
20970;SDS011;10644;48.834;10.088;2023-04-25T06:11:18;16.40;;;6.10;;
20970;SDS011;10644;48.834;10.088;2023-04-25T06:13:43;16.43;;;6.03;;
20970;SDS011;10644;48.834;10.088;2023-04-25T06:16:09;16.40;;;6.43;;
20970;SDS011;10644;48.834;10.088;2023-04-25T06:18:34;25.00;;;7.27;;
20970;SDS011;10644;48.834;10.088;2023-04-25T06:20:59;14.67;;;6.00;;
20970;SDS011;10644;48.834;10.088;2023-04-25T06:23:25;13.93;;;5.97;;
20970;SDS011;10644;48.834;10.088;2023-04-25T06:25:50;54.37;;;20.67;;
20970;SDS011;10644;48.834;10.088;2023-04-25T06:28:16;18.53;;;6.10;;
20970;SDS011;10644;48.834;10.088;2023-04-25T06:30:41;13.20;;;5.90;;
20970;SDS011;10644;48.834;10.088;2023-04-25T06:33:09;17.67;;;6.70;;
20970;SDS011;10644;48.834;10.088;2023-04-25T06:35:34;14.40;;;6.03;;
20970;SDS011;10644;48.834;10.088;2023-04-25T06:38:00;21.83;;;10.73;;
20970;SDS011;10644;48.834;10.088;2023-04-25T06:40:27;15.80;;;6.85;;
20970;SDS011;10644;48.834;10.088;2023-04-25T06:42:53;15.97;;;6.77;;
20970;SDS011;10644;48.834;10.088;2023-04-25T06:45:18;14.43;;;6.20;;
20970;SDS011;10644;48.834;10.088;2023-04-25T06:47:43;17.43;;;6.13;;
20970;SDS011;10644;48.834;10.088;2023-04-25T06:50:09;15.97;;;5.80;;
20970;SDS011;10644;48.834;10.088;2023-04-25T06:52:35;16.03;;;6.23;;
20970;SDS011;10644;48.834;10.088;2023-04-25T06:55:01;18.97;;;6.63;;
20970;SDS011;10644;48.834;10.088;2023-04-25T06:57:26;21.27;;;10.50;;
20970;SDS011;10644;48.834;10.088;2023-04-25T06:59:51;17.43;;;6.70;;
20970;SDS011;10644;48.834;10.088;2023-04-25T07:02:17;15.67;;;6.53;;
20970;SDS011;10644;48.834;10.088;2023-04-25T07:04:42;18.83;;;6.60;;
20970;SDS011;10644;48.834;10.088;2023-04-25T07:07:08;19.13;;;7.30;;
20970;SDS011;10644;48.834;10.088;2023-04-25T07:09:33;16.73;;;7.27;;
20970;SDS011;10644;48.834;10.088;2023-04-25T07:11:59;25.43;;;10.20;;
20970;SDS011;10644;48.834;10.088;2023-04-25T07:14:26;17.13;;;6.93;;
20970;SDS011;10644;48.834;10.088;2023-04-25T07:16:52;12.90;;;6.27;;
20970;SDS011;10644;48.834;10.088;2023-04-25T07:19:17;33.63;;;8.03;;
20970;SDS011;10644;48.834;10.088;2023-04-25T07:21:43;26.87;;;9.93;;
20970;SDS011;10644;48.834;10.088;2023-04-25T07:24:10;18.13;;;8.30;;
20970;SDS011;10644;48.834;10.088;2023-04-25T07:26:36;25.30;;;9.67;;
20970;SDS011;10644;48.834;10.088;2023-04-25T07:29:01;19.00;;;7.63;;
20970;SDS011;10644;48.834;10.088;2023-04-25T07:31:26;16.63;;;7.00;;
20970;SDS011;10644;48.834;10.088;2023-04-25T07:33:52;24.13;;;8.73;;
20970;SDS011;10644;48.834;10.088;2023-04-25T07:36:18;22.23;;;8.17;;
20970;SDS011;10644;48.834;10.088;2023-04-25T07:38:45;21.43;;;8.00;;
20970;SDS011;10644;48.834;10.088;2023-04-25T07:41:11;19.03;;;7.67;;
20970;SDS011;10644;48.834;10.088;2023-04-25T07:43:36;15.23;;;6.47;;
20970;SDS011;10644;48.834;10.088;2023-04-25T07:46:04;12.43;;;6.27;;
20970;SDS011;10644;48.834;10.088;2023-04-25T07:48:30;14.43;;;6.63;;
20970;SDS011;10644;48.834;10.088;2023-04-25T07:50:55;24.07;;;8.90;;
20970;SDS011;10644;48.834;10.088;2023-04-25T07:53:20;18.70;;;7.57;;
20970;SDS011;10644;48.834;10.088;2023-04-25T07:55:46;13.50;;;6.70;;
20970;SDS011;10644;48.834;10.088;2023-04-25T07:58:11;15.03;;;6.80;;
20970;SDS011;10644;48.834;10.088;2023-04-25T08:00:37;12.90;;;6.13;;
20970;SDS011;10644;48.834;10.088;2023-04-25T08:03:03;16.37;;;6.80;;
20970;SDS011;10644;48.834;10.088;2023-04-25T08:05:28;22.37;;;8.83;;
20970;SDS011;10644;48.834;10.088;2023-04-25T08:07:54;18.03;;;7.47;;
20970;SDS011;10644;48.834;10.088;2023-04-25T08:10:20;27.53;;;8.50;;
20970;SDS011;10644;48.834;10.088;2023-04-25T08:12:45;25.60;;;8.33;;
20970;SDS011;10644;48.834;10.088;2023-04-25T08:15:11;15.97;;;6.80;;
20970;SDS011;10644;48.834;10.088;2023-04-25T08:17:38;16.07;;;6.47;;
20970;SDS011;10644;48.834;10.088;2023-04-25T08:20:04;13.40;;;6.30;;
20970;SDS011;10644;48.834;10.088;2023-04-25T08:22:35;15.70;;;6.33;;
20970;SDS011;10644;48.834;10.088;2023-04-25T08:25:01;15.83;;;6.67;;
20970;SDS011;10644;48.834;10.088;2023-04-25T08:27:26;21.00;;;7.00;;
20970;SDS011;10644;48.834;10.088;2023-04-25T08:29:51;63.47;;;18.33;;
20970;SDS011;10644;48.834;10.088;2023-04-25T08:32:18;91.07;;;23.87;;
20970;SDS011;10644;48.834;10.088;2023-04-25T08:34:43;134.40;;;53.90;;
20970;SDS011;10644;48.834;10.088;2023-04-25T08:37:09;123.30;;;54.53;;
20970;SDS011;10644;48.834;10.088;2023-04-25T08:39:35;51.80;;;41.97;;
20970;SDS011;10644;48.834;10.088;2023-04-25T08:42:02;173.33;;;95.37;;
20970;SDS011;10644;48.834;10.088;2023-04-25T08:44:31;28.57;;;13.17;;
20970;SDS011;10644;48.834;10.088;2023-04-25T08:46:58;25.30;;;11.20;;
20970;SDS011;10644;48.834;10.088;2023-04-25T08:49:24;46.60;;;23.40;;
20970;SDS011;10644;48.834;10.088;2023-04-25T08:51:54;20.83;;;8.50;;
20970;SDS011;10644;48.834;10.088;2023-04-25T08:54:23;26.70;;;9.17;;
20970;SDS011;10644;48.834;10.088;2023-04-25T08:56:52;19.10;;;7.23;;
20970;SDS011;10644;48.834;10.088;2023-04-25T08:59:19;18.40;;;6.80;;
20970;SDS011;10644;48.834;10.088;2023-04-25T09:01:46;19.23;;;6.40;;
20970;SDS011;10644;48.834;10.088;2023-04-25T09:04:12;10.43;;;5.43;;
20970;SDS011;10644;48.834;10.088;2023-04-25T09:06:37;18.40;;;7.23;;
20970;SDS011;10644;48.834;10.088;2023-04-25T09:09:03;20.50;;;6.90;;
20970;SDS011;10644;48.834;10.088;2023-04-25T09:11:30;34.97;;;10.60;;
20970;SDS011;10644;48.834;10.088;2023-04-25T09:14:15;16.17;;;6.13;;
20970;SDS011;10644;48.834;10.088;2023-04-25T09:19:27;17.03;;;5.13;;
20970;SDS011;10644;48.834;10.088;2023-04-25T09:21:54;20.13;;;6.10;;
20970;SDS011;10644;48.834;10.088;2023-04-25T09:26:56;16.90;;;5.93;;
20970;SDS011;10644;48.834;10.088;2023-04-25T09:29:28;20.13;;;6.40;;
20970;SDS011;10644;48.834;10.088;2023-04-25T09:32:10;14.30;;;5.00;;
20970;SDS011;10644;48.834;10.088;2023-04-25T09:34:44;15.73;;;5.60;;
20970;SDS011;10644;48.834;10.088;2023-04-25T09:37:16;14.33;;;4.90;;
20970;SDS011;10644;48.834;10.088;2023-04-25T09:39:46;19.27;;;6.30;;
20970;SDS011;10644;48.834;10.088;2023-04-25T09:42:13;15.80;;;5.40;;
20970;SDS011;10644;48.834;10.088;2023-04-25T09:44:46;24.97;;;7.33;;
20970;SDS011;10644;48.834;10.088;2023-04-25T09:47:15;36.80;;;8.83;;
20970;SDS011;10644;48.834;10.088;2023-04-25T09:49:46;13.10;;;4.87;;
20970;SDS011;10644;48.834;10.088;2023-04-25T09:52:16;21.60;;;7.13;;
20970;SDS011;10644;48.834;10.088;2023-04-25T09:54:43;13.33;;;5.40;;
20970;SDS011;10644;48.834;10.088;2023-04-25T09:57:35;14.73;;;5.33;;
20970;SDS011;10644;48.834;10.088;2023-04-25T10:00:05;40.57;;;8.47;;
20970;SDS011;10644;48.834;10.088;2023-04-25T10:03:11;37.37;;;8.50;;
20970;SDS011;10644;48.834;10.088;2023-04-25T10:06:18;119.37;;;18.93;;
20970;SDS011;10644;48.834;10.088;2023-04-25T10:17:50;70.80;;;13.10;;
20970;SDS011;10644;48.834;10.088;2023-04-25T10:27:59;36.07;;;8.80;;
20970;SDS011;10644;48.834;10.088;2023-04-25T10:31:12;64.87;;;14.40;;
20970;SDS011;10644;48.834;10.088;2023-04-25T10:34:18;20.03;;;7.73;;
20970;SDS011;10644;48.834;10.088;2023-04-25T10:36:54;44.87;;;10.13;;
20970;SDS011;10644;48.834;10.088;2023-04-25T10:39:46;17.40;;;7.60;;
20970;SDS011;10644;48.834;10.088;2023-04-25T10:42:33;26.05;;;8.82;;
20970;SDS011;10644;48.834;10.088;2023-04-25T10:45:27;43.47;;;11.03;;
20970;SDS011;10644;48.834;10.088;2023-04-25T10:48:05;42.53;;;10.47;;
20970;SDS011;10644;48.834;10.088;2023-04-25T10:54:17;60.03;;;12.57;;
20970;SDS011;10644;48.834;10.088;2023-04-25T10:56:55;66.17;;;16.73;;
20970;SDS011;10644;48.834;10.088;2023-04-25T11:00:15;40.20;;;10.77;;
20970;SDS011;10644;48.834;10.088;2023-04-25T11:09:17;24.13;;;8.53;;
20970;SDS011;10644;48.834;10.088;2023-04-25T11:12:04;67.83;;;13.90;;
20970;SDS011;10644;48.834;10.088;2023-04-25T11:14:59;25.80;;;9.23;;
20970;SDS011;10644;48.834;10.088;2023-04-25T11:17:32;23.40;;;8.00;;
20970;SDS011;10644;48.834;10.088;2023-04-25T11:20:11;71.77;;;18.90;;
20970;SDS011;10644;48.834;10.088;2023-04-25T11:22:39;27.67;;;8.37;;
20970;SDS011;10644;48.834;10.088;2023-04-25T11:25:07;22.33;;;8.03;;
20970;SDS011;10644;48.834;10.088;2023-04-25T11:27:37;13.40;;;6.40;;
20970;SDS011;10644;48.834;10.088;2023-04-25T11:30:14;24.07;;;7.70;;
20970;SDS011;10644;48.834;10.088;2023-04-25T11:32:46;15.30;;;6.23;;
20970;SDS011;10644;48.834;10.088;2023-04-25T11:35:12;23.83;;;7.43;;
20970;SDS011;10644;48.834;10.088;2023-04-25T11:37:43;32.17;;;10.13;;
20970;SDS011;10644;48.834;10.088;2023-04-25T11:40:09;83.63;;;24.97;;
20970;SDS011;10644;48.834;10.088;2023-04-25T11:42:37;26.47;;;9.73;;
20970;SDS011;10644;48.834;10.088;2023-04-25T11:45:03;33.27;;;10.70;;
20970;SDS011;10644;48.834;10.088;2023-04-25T11:47:30;32.63;;;11.40;;
20970;SDS011;10644;48.834;10.088;2023-04-25T11:50:00;18.97;;;9.20;;
20970;SDS011;10644;48.834;10.088;2023-04-25T11:52:35;20.57;;;7.27;;
20970;SDS011;10644;48.834;10.088;2023-04-25T11:55:14;20.60;;;7.43;;
20970;SDS011;10644;48.834;10.088;2023-04-25T11:57:40;14.07;;;5.77;;
20970;SDS011;10644;48.834;10.088;2023-04-25T12:02:45;25.20;;;7.50;;
20970;SDS011;10644;48.834;10.088;2023-04-25T12:05:13;22.07;;;5.87;;
20970;SDS011;10644;48.834;10.088;2023-04-25T12:07:40;16.43;;;4.70;;
20970;SDS011;10644;48.834;10.088;2023-04-25T12:10:08;25.07;;;6.80;;
20970;SDS011;10644;48.834;10.088;2023-04-25T12:12:36;30.03;;;9.30;;
20970;SDS011;10644;48.834;10.088;2023-04-25T12:17:46;23.33;;;6.23;;
20970;SDS011;10644;48.834;10.088;2023-04-25T12:20:13;14.63;;;6.27;;
20970;SDS011;10644;48.834;10.088;2023-04-25T12:22:42;23.37;;;8.97;;
20970;SDS011;10644;48.834;10.088;2023-04-25T12:25:12;16.73;;;7.30;;
20970;SDS011;10644;48.834;10.088;2023-04-25T12:27:38;25.43;;;8.23;;
20970;SDS011;10644;48.834;10.088;2023-04-25T12:30:08;17.97;;;7.07;;
20970;SDS011;10644;48.834;10.088;2023-04-25T12:32:38;33.13;;;11.00;;
20970;SDS011;10644;48.834;10.088;2023-04-25T12:35:06;36.60;;;10.90;;
20970;SDS011;10644;48.834;10.088;2023-04-25T12:37:31;20.77;;;7.23;;
20970;SDS011;10644;48.834;10.088;2023-04-25T12:39:59;26.17;;;7.43;;
20970;SDS011;10644;48.834;10.088;2023-04-25T12:42:31;28.37;;;8.17;;
20970;SDS011;10644;48.834;10.088;2023-04-25T12:44:59;28.02;;;8.77;;
20970;SDS011;10644;48.834;10.088;2023-04-25T12:47:25;20.10;;;7.33;;
20970;SDS011;10644;48.834;10.088;2023-04-25T12:49:50;27.97;;;8.27;;
20970;SDS011;10644;48.834;10.088;2023-04-25T12:52:16;18.67;;;6.20;;
20970;SDS011;10644;48.834;10.088;2023-04-25T12:54:41;35.93;;;10.63;;
20970;SDS011;10644;48.834;10.088;2023-04-25T12:57:06;24.00;;;6.67;;
20970;SDS011;10644;48.834;10.088;2023-04-25T12:59:32;19.20;;;5.90;;
20970;SDS011;10644;48.834;10.088;2023-04-25T13:01:57;21.73;;;6.13;;
20970;SDS011;10644;48.834;10.088;2023-04-25T13:04:23;21.20;;;6.20;;
20970;SDS011;10644;48.834;10.088;2023-04-25T13:06:48;26.63;;;8.10;;
20970;SDS011;10644;48.834;10.088;2023-04-25T13:09:16;22.10;;;7.35;;
20970;SDS011;10644;48.834;10.088;2023-04-25T13:11:44;14.60;;;6.07;;
20970;SDS011;10644;48.834;10.088;2023-04-25T13:14:10;19.57;;;5.50;;
20970;SDS011;10644;48.834;10.088;2023-04-25T13:16:38;14.10;;;5.53;;
20970;SDS011;10644;48.834;10.088;2023-04-25T13:19:04;20.27;;;5.40;;
20970;SDS011;10644;48.834;10.088;2023-04-25T13:21:35;13.90;;;5.53;;
20970;SDS011;10644;48.834;10.088;2023-04-25T13:24:01;22.23;;;7.13;;
20970;SDS011;10644;48.834;10.088;2023-04-25T13:26:28;23.37;;;6.13;;
20970;SDS011;10644;48.834;10.088;2023-04-25T13:28:54;18.20;;;5.57;;
20970;SDS011;10644;48.834;10.088;2023-04-25T13:31:19;36.87;;;7.90;;
20970;SDS011;10644;48.834;10.088;2023-04-25T13:33:44;17.77;;;5.80;;
20970;SDS011;10644;48.834;10.088;2023-04-25T13:36:10;19.07;;;5.43;;
20970;SDS011;10644;48.834;10.088;2023-04-25T13:38:36;20.63;;;5.77;;
20970;SDS011;10644;48.834;10.088;2023-04-25T13:41:01;18.50;;;6.27;;
20970;SDS011;10644;48.834;10.088;2023-04-25T13:43:26;18.73;;;6.27;;
20970;SDS011;10644;48.834;10.088;2023-04-25T13:45:52;26.13;;;7.00;;
20970;SDS011;10644;48.834;10.088;2023-04-25T13:48:18;22.37;;;7.57;;
20970;SDS011;10644;48.834;10.088;2023-04-25T13:50:46;20.20;;;7.70;;
20970;SDS011;10644;48.834;10.088;2023-04-25T13:53:14;36.10;;;8.67;;
20970;SDS011;10644;48.834;10.088;2023-04-25T13:55:39;35.57;;;9.07;;
20970;SDS011;10644;48.834;10.088;2023-04-25T13:58:05;26.30;;;7.00;;
20970;SDS011;10644;48.834;10.088;2023-04-25T14:00:33;18.20;;;6.80;;
20970;SDS011;10644;48.834;10.088;2023-04-25T14:03:00;27.60;;;8.27;;
20970;SDS011;10644;48.834;10.088;2023-04-25T14:05:29;23.03;;;8.50;;
20970;SDS011;10644;48.834;10.088;2023-04-25T14:07:55;29.87;;;8.43;;
20970;SDS011;10644;48.834;10.088;2023-04-25T14:10:20;21.13;;;7.10;;
20970;SDS011;10644;48.834;10.088;2023-04-25T14:12:46;23.67;;;8.00;;
20970;SDS011;10644;48.834;10.088;2023-04-25T14:15:11;26.77;;;8.70;;
20970;SDS011;10644;48.834;10.088;2023-04-25T14:17:37;24.93;;;8.27;;
20970;SDS011;10644;48.834;10.088;2023-04-25T14:20:03;28.63;;;4.43;;
20970;SDS011;10644;48.834;10.088;2023-04-25T14:22:30;21.70;;;4.63;;
20970;SDS011;10644;48.834;10.088;2023-04-25T14:24:58;25.83;;;5.20;;
20970;SDS011;10644;48.834;10.088;2023-04-25T14:27:23;24.03;;;4.60;;
20970;SDS011;10644;48.834;10.088;2023-04-25T14:29:49;20.53;;;4.30;;
20970;SDS011;10644;48.834;10.088;2023-04-25T14:32:14;23.43;;;4.93;;
20970;SDS011;10644;48.834;10.088;2023-04-25T14:34:40;28.93;;;5.40;;
20970;SDS011;10644;48.834;10.088;2023-04-25T14:37:05;41.40;;;7.50;;
20970;SDS011;10644;48.834;10.088;2023-04-25T14:39:31;26.63;;;5.07;;
20970;SDS011;10644;48.834;10.088;2023-04-25T14:41:57;31.60;;;15.50;;
20970;SDS011;10644;48.834;10.088;2023-04-25T14:44:22;16.60;;;4.33;;
20970;SDS011;10644;48.834;10.088;2023-04-25T14:46:48;24.10;;;4.77;;
20970;SDS011;10644;48.834;10.088;2023-04-25T14:49:16;24.10;;;4.70;;
20970;SDS011;10644;48.834;10.088;2023-04-25T14:51:41;31.13;;;6.13;;
20970;SDS011;10644;48.834;10.088;2023-04-25T14:54:07;20.27;;;4.57;;
20970;SDS011;10644;48.834;10.088;2023-04-25T14:56:32;27.10;;;5.20;;
20970;SDS011;10644;48.834;10.088;2023-04-25T14:58:58;35.70;;;8.33;;
20970;SDS011;10644;48.834;10.088;2023-04-25T15:01:23;41.43;;;10.30;;
20970;SDS011;10644;48.834;10.088;2023-04-25T15:03:48;38.20;;;6.10;;